createdAt,value
2022-08-26T00:02:11.460Z,67.66
2022-08-26T00:05:17.633Z,67.37
2022-08-26T00:08:25.026Z,67.65
2022-08-26T00:11:30.078Z,68.01
2022-08-26T00:14:34.111Z,67.78
2022-08-26T00:17:40.359Z,67.11
2022-08-26T00:20:46.205Z,66.48
2022-08-26T00:23:50.229Z,66.05
2022-08-26T00:26:54.139Z,65.76
2022-08-26T00:29:59.122Z,66.25
2022-08-26T00:33:05.661Z,66.36
2022-08-26T00:36:19.989Z,66.58
2022-08-26T00:39:24.530Z,67.09
2022-08-26T00:42:28.798Z,66.74
2022-08-26T00:45:40.965Z,66.21
2022-08-26T00:48:51.809Z,66.08
2022-08-26T00:52:00.371Z,65.92
2022-08-26T00:55:10.119Z,66.52
2022-08-26T00:58:14.371Z,66.52
2022-08-26T01:01:22.900Z,66.35
2022-08-26T01:04:30.062Z,65.68
2022-08-26T01:07:37.843Z,65.84
2022-08-26T01:10:44.864Z,66.77
2022-08-26T01:13:52.515Z,66.43
2022-08-26T01:16:58.368Z,66.03
2022-08-26T01:20:08.787Z,66.98
2022-08-26T01:23:16.488Z,67.25
2022-08-26T01:26:23.292Z,67.30
2022-08-26T01:29:27.635Z,67.20
2022-08-26T01:32:36.713Z,66.75
2022-08-26T01:35:44.700Z,66.37
2022-08-26T01:38:50.607Z,66.43
2022-08-26T01:41:58.039Z,66.14
2022-08-26T01:45:15.100Z,66.38
2022-08-26T01:48:24.738Z,66.46
2022-08-26T01:51:30.546Z,67.17
2022-08-26T01:54:36.960Z,67.07
2022-08-26T01:57:44.360Z,66.74
2022-08-26T02:00:50.377Z,67.00
2022-08-26T02:03:59.879Z,66.78
2022-08-26T02:07:07.694Z,66.88
2022-08-26T02:10:13.805Z,67.21
2022-08-26T02:13:19.097Z,66.82
2022-08-26T02:16:27.478Z,66.60
2022-08-26T02:19:33.395Z,66.73
2022-08-26T02:22:37.617Z,67.25
2022-08-26T02:25:50.911Z,67.86
2022-08-26T02:29:03.371Z,67.54
2022-08-26T02:32:27.136Z,67.81
2022-08-26T02:35:33.299Z,67.22
2022-08-26T02:38:38.049Z,67.64
2022-08-26T02:41:47.478Z,69.37
2022-08-26T02:44:52.500Z,69.00
2022-08-26T02:47:59.642Z,68.74
2022-08-26T02:51:03.535Z,68.78
2022-08-26T02:54:08.018Z,68.77
2022-08-26T02:57:15.077Z,70.01
2022-08-26T03:00:20.894Z,69.61
2022-08-26T03:03:25.624Z,69.12
2022-08-26T03:06:32.498Z,68.22
2022-08-26T03:09:38.925Z,68.37
2022-08-26T03:12:47.530Z,68.15
2022-08-26T03:15:55.558Z,69.13
2022-08-26T03:19:00.991Z,68.57
2022-08-26T03:22:06.123Z,68.17
2022-08-26T03:25:13.345Z,68.17
2022-08-26T03:28:22.154Z,68.26
2022-08-26T03:31:25.463Z,68.42
2022-08-26T03:34:29.363Z,68.01
2022-08-26T03:37:33.913Z,68.19
2022-08-26T03:40:38.927Z,68.82
2022-08-26T03:43:48.484Z,69.72
2022-08-26T03:46:55.100Z,69.24
2022-08-26T03:49:59.750Z,68.84
2022-08-26T03:53:07.441Z,68.86
2022-08-26T03:56:16.831Z,68.97
2022-08-26T03:59:25.072Z,68.78
2022-08-26T04:02:31.828Z,69.11
2022-08-26T04:05:35.750Z,68.99
2022-08-26T04:08:40.260Z,69.14
2022-08-26T04:11:50.744Z,68.61
2022-08-26T04:19:07.465Z,69.35
2022-08-26T04:22:30.040Z,69.73
2022-08-26T04:25:36.205Z,70.18
2022-08-26T04:28:46.468Z,70.15
2022-08-26T04:32:06.707Z,69.32
2022-08-26T04:35:16.050Z,68.75
2022-08-26T04:41:59.394Z,69.14
2022-08-26T04:45:10.387Z,69.76
2022-08-26T04:48:18.504Z,70.31
2022-08-26T04:51:28.033Z,69.30
2022-08-26T04:54:32.083Z,69.06
2022-08-26T04:57:36.382Z,68.46
2022-08-26T05:04:38.699Z,68.25
2022-08-26T05:07:44.668Z,69.07
2022-08-26T05:10:55.380Z,68.64
2022-08-26T05:14:05.810Z,69.08
2022-08-26T05:17:10.238Z,68.67
2022-08-26T05:20:26.231Z,68.20
2022-08-26T05:23:32.182Z,67.98
2022-08-26T05:26:36.487Z,67.54
2022-08-26T05:29:40.820Z,67.43
2022-08-26T05:32:45.136Z,67.30
2022-08-26T05:35:51.781Z,66.80
2022-08-26T05:38:59.254Z,66.07
2022-08-26T05:42:06.476Z,67.08
2022-08-26T05:45:11.668Z,65.98
2022-08-26T05:48:16.890Z,65.13
2022-08-26T05:51:26.098Z,64.83
2022-08-26T05:54:30.785Z,64.55
2022-08-26T05:57:40.455Z,64.78
2022-08-26T06:00:47.013Z,64.33
2022-08-26T06:03:54.255Z,63.25
2022-08-26T06:06:59.963Z,63.22
2022-08-26T06:10:30.479Z,62.74
2022-08-26T06:13:31.911Z,63.38
2022-08-26T06:16:38.777Z,63.31
2022-08-26T06:19:47.394Z,62.78
2022-08-26T06:23:10.473Z,61.51
2022-08-26T06:26:18.559Z,61.46
2022-08-26T06:29:26.946Z,61.42
2022-08-26T06:32:31.722Z,61.77
2022-08-26T06:35:42.567Z,61.61
2022-08-26T06:38:53.032Z,60.60
2022-08-26T06:42:03.161Z,59.99
2022-08-26T06:45:12.334Z,60.22
2022-08-26T06:48:21.873Z,59.40
2022-08-26T06:51:34.744Z,59.02
2022-08-26T06:54:44.340Z,57.52
2022-08-26T06:57:48.704Z,57.05
2022-08-26T07:00:54.136Z,55.23
2022-08-26T07:04:00.429Z,54.76
2022-08-26T07:07:04.604Z,53.13
2022-08-26T07:10:17.439Z,52.01
2022-08-26T07:13:30.503Z,51.90
2022-08-26T07:16:35.779Z,51.68
2022-08-26T07:19:40.523Z,50.21
2022-08-26T07:22:44.337Z,50.00
2022-08-26T07:25:50.904Z,49.31
2022-08-26T07:28:57.788Z,49.50
2022-08-26T07:32:04.650Z,48.37
2022-08-26T07:35:10.553Z,47.28
2022-08-26T07:38:16.896Z,46.70
2022-08-26T07:41:25.454Z,44.81
2022-08-26T07:44:31.347Z,46.08
2022-08-26T07:47:35.810Z,43.50
2022-08-26T07:50:50.339Z,44.55
2022-08-26T07:53:56.569Z,43.73
2022-08-26T07:57:05.214Z,42.73
2022-08-26T08:00:17.150Z,43.42
2022-08-26T08:03:21.882Z,44.68
2022-08-26T08:06:28.883Z,44.18
2022-08-26T08:09:34.277Z,43.43
2022-08-26T08:12:39.798Z,43.50
2022-08-26T08:15:44.910Z,42.16
2022-08-26T08:18:48.663Z,43.38
2022-08-26T08:21:55.135Z,44.39
2022-08-26T08:24:58.822Z,43.33
2022-08-26T08:28:05.213Z,45.27
2022-08-26T08:31:10.449Z,46.53
2022-08-26T08:34:15.267Z,45.92
2022-08-26T08:37:46.210Z,45.83
2022-08-26T08:40:50.657Z,46.99
2022-08-26T08:44:44.446Z,47.24
2022-08-26T08:48:46.709Z,46.97
2022-08-26T08:51:58.991Z,48.12
2022-08-26T08:55:31.731Z,47.96
2022-08-26T08:58:51.552Z,48.98
2022-08-26T09:02:07.576Z,46.90
2022-08-26T09:06:01.059Z,49.42
2022-08-26T09:09:08.863Z,48.75
2022-08-26T09:12:16.674Z,48.52
2022-08-26T09:15:30.202Z,49.45
2022-08-26T09:18:52.733Z,49.33
2022-08-26T09:21:57.859Z,48.30
2022-08-26T09:25:04.531Z,48.25
2022-08-26T09:28:17.528Z,49.30
2022-08-26T09:31:27.014Z,48.21
2022-08-26T09:34:33.730Z,49.74
2022-08-26T09:37:42.326Z,48.31
2022-08-26T09:40:59.103Z,47.75
2022-08-26T09:44:14.625Z,48.87
2022-08-26T09:47:24.307Z,47.72
2022-08-26T09:50:31.941Z,49.48
2022-08-26T09:53:51.315Z,47.61
2022-08-26T09:57:13.828Z,48.66
2022-08-26T10:00:33.505Z,48.38
2022-08-26T10:03:39.820Z,47.40
2022-08-26T10:06:55.982Z,47.57
2022-08-26T10:10:01.004Z,47.48
2022-08-26T10:13:14.362Z,46.86
2022-08-26T10:16:23.552Z,46.82
2022-08-26T10:19:56.195Z,45.43
2022-08-26T10:23:08.508Z,44.51
2022-08-26T10:26:18.252Z,45.83
2022-08-26T10:29:31.350Z,44.49
2022-08-26T10:32:49.967Z,44.47
2022-08-26T10:35:59.778Z,44.72
2022-08-26T10:39:09.726Z,44.59
2022-08-26T10:42:24.603Z,45.15
2022-08-26T10:45:35.771Z,44.07
2022-08-26T10:48:48.457Z,44.33
2022-08-26T10:51:59.982Z,43.70
2022-08-26T10:55:19.224Z,44.23
2022-08-26T10:58:44.639Z,44.01
2022-08-26T11:02:03.886Z,42.91
2022-08-26T11:05:22.692Z,41.83
2022-08-26T11:08:31.012Z,42.56
2022-08-26T11:11:53.379Z,39.73
2022-08-26T11:14:59.144Z,42.73
2022-08-26T11:18:07.832Z,42.04
2022-08-26T11:21:50.724Z,41.92
2022-08-26T11:25:05.493Z,40.62
2022-08-26T11:28:09.278Z,39.88
2022-08-26T11:31:54.103Z,40.41
2022-08-26T11:35:01.520Z,40.40
2022-08-26T11:38:21.274Z,39.79
2022-08-26T11:41:29.435Z,39.66
2022-08-26T11:44:49.576Z,40.23
2022-08-26T11:47:54.864Z,37.32
2022-08-26T11:51:08.463Z,37.78
2022-08-26T11:54:16.408Z,38.90
2022-08-26T11:57:21.811Z,39.96
2022-08-26T12:00:33.471Z,40.37
2022-08-26T12:03:45.512Z,42.61
2022-08-26T12:06:53.845Z,42.29
2022-08-26T12:10:50.971Z,41.63
2022-08-26T12:14:07.217Z,42.00
2022-08-26T12:17:16.060Z,41.70
2022-08-26T12:20:46.024Z,40.91
2022-08-26T12:23:55.040Z,41.85
2022-08-26T12:27:17.561Z,41.09
2022-08-26T12:30:26.445Z,39.80
2022-08-26T12:33:31.267Z,39.76
2022-08-26T12:36:42.378Z,39.09
2022-08-26T12:39:51.848Z,37.06
2022-08-26T12:42:56.879Z,36.37
2022-08-26T12:46:04.895Z,39.90
2022-08-26T12:49:11.021Z,41.12
2022-08-26T12:52:33.987Z,41.36
2022-08-26T12:55:44.112Z,42.18
2022-08-26T12:59:05.005Z,42.69
2022-08-26T13:02:12.070Z,41.12
2022-08-26T13:05:23.982Z,40.86
2022-08-26T13:08:29.495Z,40.47
2022-08-26T13:11:58.465Z,41.75
2022-08-26T13:15:04.028Z,42.41
2022-08-26T13:18:11.251Z,42.93
2022-08-26T13:21:19.902Z,43.10
2022-08-26T13:24:27.781Z,40.64
2022-08-26T13:27:34.653Z,40.46
2022-08-26T13:30:38.474Z,40.34
2022-08-26T13:33:44.738Z,40.53
2022-08-26T13:36:52.062Z,41.30
2022-08-26T13:39:57.690Z,42.17
2022-08-26T13:43:04.145Z,42.40
2022-08-26T13:46:10.487Z,42.58
2022-08-26T13:49:15.308Z,43.20
2022-08-26T13:52:30.265Z,43.39
2022-08-26T13:55:41.076Z,43.86
2022-08-26T13:58:50.095Z,44.37
2022-08-26T14:01:54.853Z,44.67
2022-08-26T14:05:02.518Z,44.88
2022-08-26T14:08:07.561Z,44.93
2022-08-26T14:11:13.004Z,44.17
2022-08-26T14:14:21.411Z,45.52
2022-08-26T14:17:30.690Z,45.82
2022-08-26T14:20:39.108Z,46.67
2022-08-26T14:23:47.752Z,45.90
2022-08-26T14:26:52.889Z,46.82
2022-08-26T14:30:00.419Z,47.47
2022-08-26T14:33:06.945Z,48.15
2022-08-26T14:36:32.342Z,48.67
2022-08-26T14:39:37.226Z,50.37
2022-08-26T14:42:47.857Z,50.38
2022-08-26T14:45:58.695Z,50.83
2022-08-26T14:49:06.194Z,51.34
2022-08-26T14:52:13.748Z,51.85
2022-08-26T14:55:17.811Z,52.12
2022-08-26T14:58:21.877Z,51.94
2022-08-26T15:01:32.625Z,51.75
2022-08-26T15:04:36.705Z,51.57
2022-08-26T15:07:41.492Z,51.81
2022-08-26T15:10:47.110Z,51.09
2022-08-26T15:13:53.622Z,50.74
2022-08-26T15:17:01.005Z,50.43
2022-08-26T15:20:08.733Z,50.46
2022-08-26T15:23:12.970Z,50.28
2022-08-26T15:26:21.068Z,50.08
2022-08-26T15:29:27.742Z,49.78
2022-08-26T15:32:41.400Z,49.76
2022-08-26T15:35:45.665Z,49.43
2022-08-26T15:38:49.994Z,48.80
2022-08-26T15:41:56.345Z,49.17
2022-08-26T15:45:02.292Z,49.00
2022-08-26T15:48:09.894Z,48.72
2022-08-26T15:51:23.109Z,49.43
2022-08-26T15:54:27.654Z,49.53
2022-08-26T15:57:33.786Z,49.94
2022-08-26T16:00:37.924Z,50.28
2022-08-26T16:04:03.772Z,50.46
2022-08-26T16:07:07.774Z,51.20
2022-08-26T16:10:14.896Z,51.38
2022-08-26T16:13:20.437Z,51.27
2022-08-26T16:16:29.474Z,51.22
2022-08-26T16:19:37.596Z,51.11
2022-08-26T16:22:41.659Z,51.64
2022-08-26T16:25:47.711Z,51.78
2022-08-26T16:28:54.322Z,51.73
2022-08-26T16:31:58.635Z,51.52
2022-08-26T16:35:07.085Z,52.02
2022-08-26T16:38:12.177Z,51.68
2022-08-26T16:41:19.418Z,51.86
2022-08-26T16:44:29.875Z,52.12
2022-08-26T16:47:41.399Z,52.98
2022-08-26T16:50:51.408Z,53.08
2022-08-26T16:53:59.979Z,53.45
2022-08-26T16:57:07.645Z,53.69
2022-08-26T17:00:15.483Z,54.10
2022-08-26T17:03:19.697Z,55.01
2022-08-26T17:06:25.758Z,55.06
2022-08-26T17:09:31.639Z,55.21
2022-08-26T17:12:37.524Z,55.82
2022-08-26T17:15:41.821Z,55.13
2022-08-26T17:18:47.477Z,55.33
2022-08-26T17:21:53.936Z,56.26
2022-08-26T17:24:58.759Z,56.64
2022-08-26T17:28:02.865Z,56.93
2022-08-26T17:31:13.888Z,56.83
2022-08-26T17:34:19.167Z,57.60
2022-08-26T17:37:25.435Z,57.81
2022-08-26T17:40:31.746Z,57.92
2022-08-26T17:43:41.375Z,58.73
2022-08-26T17:46:47.006Z,58.92
2022-08-26T17:49:51.722Z,59.25
2022-08-26T17:52:58.124Z,58.67
2022-08-26T17:56:08.925Z,59.30
2022-08-26T17:59:13.558Z,59.19
2022-08-26T18:02:20.390Z,59.19
2022-08-26T18:05:25.933Z,59.70
2022-08-26T18:08:32.012Z,59.88
2022-08-26T18:11:38.858Z,60.41
2022-08-26T18:14:42.845Z,60.77
2022-08-26T18:17:48.079Z,61.19
2022-08-26T18:20:52.792Z,61.19
2022-08-26T18:24:13.332Z,61.95
2022-08-26T18:27:20.020Z,62.99
2022-08-26T18:30:24.910Z,62.16
2022-08-26T18:33:32.391Z,62.47
2022-08-26T18:36:38.386Z,61.82
2022-08-26T18:39:44.835Z,62.09
2022-08-26T18:42:53.998Z,61.83
2022-08-26T18:46:04.048Z,63.16
2022-08-26T18:49:08.508Z,63.14
2022-08-26T18:52:12.841Z,62.48
2022-08-26T18:56:06.304Z,62.11
2022-08-26T18:59:16.241Z,62.60
2022-08-26T19:02:22.425Z,62.72
2022-08-26T19:05:27.605Z,62.93
2022-08-26T19:08:31.311Z,63.97
2022-08-26T19:11:43.045Z,63.59
2022-08-26T19:14:47.343Z,63.30
2022-08-26T19:17:51.208Z,62.86
2022-08-26T19:20:54.810Z,63.85
2022-08-26T19:24:02.721Z,64.47
2022-08-26T19:27:11.730Z,65.41
2022-08-26T19:35:17.638Z,64.39
2022-08-26T19:38:21.734Z,64.07
2022-08-26T19:41:37.240Z,63.64
2022-08-26T19:45:05.132Z,63.85
2022-08-26T19:48:11.800Z,63.84
2022-08-26T19:51:25.750Z,63.37
2022-08-26T19:54:57.404Z,62.96
2022-08-26T19:58:09.566Z,63.13
2022-08-26T20:02:15.854Z,63.69
2022-08-26T20:10:25.192Z,64.30
2022-08-26T20:14:04.939Z,64.02
2022-08-26T20:17:09.001Z,64.09
2022-08-26T20:20:35.059Z,63.94
2022-08-26T20:23:53.880Z,64.75
2022-08-26T20:27:03.222Z,64.80
2022-08-26T20:30:14.206Z,65.05
2022-08-26T20:33:20.039Z,64.89
2022-08-26T20:36:26.963Z,65.39
2022-08-26T20:39:58.651Z,65.60
2022-08-26T20:43:06.082Z,64.98
2022-08-26T20:46:18.269Z,64.51
2022-08-26T20:49:42.997Z,65.13
2022-08-26T20:52:53.538Z,64.60
2022-08-26T20:56:02.671Z,64.60
2022-08-26T20:59:10.854Z,63.48
2022-08-26T21:02:14.888Z,65.22
2022-08-26T21:05:21.443Z,65.82
2022-08-26T21:08:27.032Z,66.34
2022-08-26T21:11:31.498Z,67.29
2022-08-26T21:14:36.847Z,66.24
2022-08-26T21:17:41.619Z,66.15
2022-08-26T21:20:46.631Z,65.38
2022-08-26T21:23:51.064Z,65.79
2022-08-26T21:26:55.869Z,66.78
2022-08-26T21:30:02.729Z,66.48
2022-08-26T21:33:06.840Z,64.94
2022-08-26T21:36:12.663Z,64.57
2022-08-26T21:39:18.215Z,65.50
2022-08-26T21:42:22.459Z,64.59
2022-08-26T21:45:27.993Z,65.12
2022-08-26T21:48:34.747Z,64.82
2022-08-26T21:51:43.022Z,64.40
2022-08-26T21:54:58.191Z,65.22
2022-08-26T21:58:02.433Z,64.08
2022-08-26T22:01:10.758Z,63.65
2022-08-26T22:04:14.727Z,63.38
2022-08-26T22:07:20.029Z,63.59
2022-08-26T22:10:24.871Z,63.80
2022-08-26T22:13:32.872Z,64.20
2022-08-26T22:16:38.218Z,63.63
2022-08-26T22:19:46.101Z,63.21
2022-08-26T22:22:50.380Z,63.14
2022-08-26T22:25:57.790Z,63.04
2022-08-26T22:29:03.431Z,63.29
2022-08-26T22:32:10.257Z,64.13
2022-08-26T22:35:28.774Z,64.96
2022-08-26T22:38:34.665Z,64.33
2022-08-26T22:44:41.588Z,63.17
2022-08-26T22:47:47.159Z,63.19
2022-08-26T22:50:53.320Z,63.55
2022-08-26T22:53:59.054Z,63.48
2022-08-26T22:57:03.808Z,63.84
2022-08-26T23:00:08.988Z,63.78
2022-08-26T23:03:19.191Z,64.03
2022-08-26T23:06:22.992Z,63.62
2022-08-26T23:09:27.465Z,63.12
2022-08-26T23:12:31.627Z,63.48
2022-08-26T23:15:37.645Z,62.21
2022-08-26T23:18:45.599Z,63.19
2022-08-26T23:21:52.371Z,63.70
2022-08-26T23:24:56.236Z,62.72
2022-08-26T23:28:04.771Z,63.21
2022-08-26T23:31:24.453Z,62.77
2022-08-26T23:34:48.115Z,63.80
2022-08-26T23:37:53.407Z,63.55
2022-08-26T23:40:57.684Z,64.03
2022-08-26T23:44:05.172Z,62.69
2022-08-26T23:47:10.732Z,63.38
2022-08-26T23:50:16.251Z,63.87
2022-08-26T23:53:21.800Z,63.78
2022-08-26T23:56:26.661Z,63.30
2022-08-26T23:59:31.232Z,63.20
